Weather reports worldwide

Advertisment
Ancona, Italy (16190): temperature & dewpoint: 10.08.2018 18:00:00 - 16.08.2018 18:00:00 (CEST)Ancona, Italy (16190): reduced air pressure: 10.08.2018 18:00:00 - 16.08.2018 18:00:00 (CEST)Ancona, Italy (16190): precipitation: 10.08.2018 18:00:00 - 16.08.2018 18:00:00 (CEST)
Date & Time tt [°C] td [°C] ppp [hPa] rr [mm]
16.08.2018 18:00:00 - - - -
16.08.2018 17:00:00 28,0 16,2 1008,5 -
16.08.2018 16:00:00 28,5 17,3 1008,8 -
16.08.2018 15:00:00 28,4 17,2 1009,0 -
16.08.2018 14:00:00 28,9 17,7 1009,5 0,0
16.08.2018 13:00:00 28,8 17,6 1009,6 -
16.08.2018 12:00:00 28,3 17,1 1009,6 -
16.08.2018 11:00:00 28,1 19,0 1009,9 -
16.08.2018 10:00:00 27,4 19,7 1009,8 -
16.08.2018 09:00:00 26,5 19,8 1009,6 -
16.08.2018 08:00:00 25,3 18,4 1009,6 0,0
16.08.2018 07:00:00 24,2 17,6 1009,5 -
16.08.2018 06:00:00 24,0 17,7 1009,2 -
16.08.2018 05:00:00 24,0 18,1 1009,1 -
16.08.2018 04:00:00 24,1 19,3 1009,2 -
16.08.2018 03:00:00 24,1 19,1 1009,4 -
16.08.2018 02:00:00 24,4 18,3 1009,4 0,0
16.08.2018 01:00:00 24,6 18,9 1009,5 -
16.08.2018 00:00:00 24,4 18,7 1009,5 -
15.08.2018 23:00:00 24,3 18,4 1009,4 -
15.08.2018 22:00:00 25,0 16,9 1009,3 -
15.08.2018 21:00:00 24,5 14,2 1008,7 -
15.08.2018 20:00:00 25,3 16,9 1008,4 0,0
15.08.2018 19:00:00 26,0 15,6 1008,1 -
15.08.2018 18:00:00 27,5 16,7 1008,2 -
15.08.2018 17:00:00 27,8 17,0 1008,3 -
15.08.2018 16:00:00 28,2 17,1 1008,2 -
15.08.2018 15:00:00 28,2 17,1 1008,3 -
15.08.2018 14:00:00 27,9 20,4 1008,4 0,0
15.08.2018 13:00:00 26,0 20,5 1008,7 -
15.08.2018 12:00:00 25,4 21,8 1008,8 -
15.08.2018 11:00:00 23,9 21,4 1008,9 -
15.08.2018 10:00:00 22,6 21,0 1008,8 -
15.08.2018 09:00:00 20,7 19,5 1008,7 -
15.08.2018 08:00:00 20,4 19,5 1008,0 0,0
15.08.2018 07:00:00 19,8 18,7 1007,9 -
15.08.2018 06:00:00 19,7 18,6 1007,8 -
15.08.2018 05:00:00 19,4 18,0 1007,9 -
15.08.2018 04:00:00 19,3 17,9 1007,5 -
15.08.2018 03:00:00 19,8 18,1 1007,8 -
15.08.2018 02:00:00 20,9 18,2 1008,4 0,0
15.08.2018 01:00:00 22,4 19,1 1007,9 -
15.08.2018 00:00:00 21,7 18,8 1008,4 -
14.08.2018 23:00:00 22,3 18,8 1007,0 -
14.08.2018 22:00:00 22,1 19,2 1006,5 -
14.08.2018 21:00:00 22,2 16,8 1006,5 -
14.08.2018 20:00:00 22,6 16,1 1006,3 0,0
14.08.2018 19:00:00 23,5 18,3 1006,9 -
14.08.2018 18:00:00 23,1 18,8 1006,9 -
14.08.2018 17:00:00 23,3 19,0 1006,8 -
14.08.2018 16:00:00 22,3 19,0 1006,9 -
14.08.2018 15:00:00 21,9 18,8 1006,7 -
14.08.2018 14:00:00 24,5 16,7 1007,4 0,0
14.08.2018 13:00:00 27,0 16,2 1006,4 -
14.08.2018 12:00:00 28,3 18,6 1006,7 -
14.08.2018 11:00:00 26,3 20,3 1006,6 -
14.08.2018 10:00:00 24,8 19,1 1006,4 -
14.08.2018 09:00:00 25,5 19,8 1006,1 -
14.08.2018 08:00:00 25,5 19,6 1006,0 0,0
14.08.2018 07:00:00 24,3 19,3 1006,0 -
14.08.2018 06:00:00 24,5 19,3 1005,6 -
14.08.2018 05:00:00 25,0 19,5 1005,8 -
14.08.2018 04:00:00 25,1 19,4 1006,1 -
14.08.2018 03:00:00 23,7 17,6 1005,9 -
14.08.2018 02:00:00 24,8 17,5 1006,2 0,0
14.08.2018 01:00:00 25,3 17,7 1006,2 -
14.08.2018 00:00:00 25,9 18,5 1006,2 -
13.08.2018 23:00:00 25,8 21,2 1006,5 -
13.08.2018 22:00:00 26,2 22,8 1006,3 -
13.08.2018 21:00:00 26,3 23,1 1005,5 -
13.08.2018 20:00:00 27,1 22,2 1004,9 0,0
13.08.2018 19:00:00 28,0 21,5 1005,0 -
13.08.2018 18:00:00 28,6 22,5 1005,4 -
13.08.2018 17:00:00 29,2 22,4 1005,9 -
13.08.2018 16:00:00 29,2 21,6 1006,4 -
13.08.2018 15:00:00 29,6 21,8 1006,8 -
13.08.2018 14:00:00 29,6 20,7 1007,1 0,0
13.08.2018 13:00:00 29,6 18,0 1007,5 -
13.08.2018 12:00:00 29,9 18,3 1008,0 -
13.08.2018 11:00:00 29,6 20,7 1008,0 -
13.08.2018 10:00:00 28,7 21,2 1008,2 -
13.08.2018 09:00:00 26,5 20,5 1008,3 -
13.08.2018 08:00:00 23,9 19,8 1008,4 0,0
13.08.2018 07:00:00 24,1 18,7 1008,1 -
13.08.2018 06:00:00 24,9 19,2 1008,0 -
13.08.2018 05:00:00 23,9 20,4 1008,2 -
13.08.2018 04:00:00 24,3 21,6 1008,4 -
13.08.2018 03:00:00 24,8 22,2 1008,7 -
13.08.2018 02:00:00 25,4 22,0 1009,1 0,0
13.08.2018 01:00:00 25,1 21,1 1009,2 -
13.08.2018 00:00:00 25,7 21,5 1009,4 -
12.08.2018 23:00:00 25,6 21,0 1009,5 -
12.08.2018 22:00:00 25,8 21,8 1009,6 -
12.08.2018 21:00:00 26,0 22,0 1009,3 -
12.08.2018 20:00:00 26,8 22,2 1009,0 0,0
12.08.2018 19:00:00 27,9 22,8 1009,1 -
12.08.2018 18:00:00 29,4 23,1 1009,7 -
12.08.2018 17:00:00 30,0 22,7 1009,7 -
12.08.2018 16:00:00 30,4 22,0 1010,1 -
12.08.2018 15:00:00 30,4 21,7 1010,5 -
12.08.2018 14:00:00 30,6 20,8 1011,2 0,0
12.08.2018 13:00:00 30,5 18,9 1011,4 -
12.08.2018 12:00:00 29,3 18,1 1011,9 -
12.08.2018 11:00:00 28,3 17,5 1012,0 -
12.08.2018 10:00:00 27,8 17,0 1011,9 -
12.08.2018 09:00:00 26,7 20,5 1011,7 -
12.08.2018 08:00:00 25,8 21,4 1011,6 0,0
12.08.2018 07:00:00 24,3 20,4 1011,5 -
12.08.2018 06:00:00 24,1 21,0 1011,2 -
12.08.2018 05:00:00 24,3 20,2 1011,2 -
12.08.2018 04:00:00 24,7 21,0 1011,4 -
12.08.2018 03:00:00 24,7 20,3 1011,7 -
12.08.2018 02:00:00 25,6 19,0 1011,5 0,0
12.08.2018 01:00:00 26,8 20,6 1011,5 -
12.08.2018 00:00:00 26,7 18,8 1011,7 -
11.08.2018 23:00:00 25,9 19,9 1011,7 -
11.08.2018 22:00:00 27,0 18,2 1011,4 -
11.08.2018 21:00:00 27,7 15,0 1010,7 -
11.08.2018 20:00:00 28,1 16,3 1010,4 0,0
11.08.2018 19:00:00 28,6 19,8 1010,3 -
11.08.2018 18:00:00 29,9 20,4 1010,4 -
11.08.2018 17:00:00 30,5 18,9 1010,6 -
11.08.2018 16:00:00 30,1 18,5 1011,1 -
11.08.2018 15:00:00 30,4 18,8 1011,6 -
11.08.2018 14:00:00 30,7 19,1 1012,0 0,0
11.08.2018 13:00:00 30,0 18,4 1012,5 -
11.08.2018 12:00:00 30,3 18,7 1012,8 -
11.08.2018 11:00:00 29,3 16,1 1013,0 -
11.08.2018 10:00:00 29,0 16,5 1013,0 -
11.08.2018 09:00:00 27,0 15,0 1012,8 -
11.08.2018 08:00:00 25,2 16,5 1012,8 0,0
11.08.2018 07:00:00 25,2 13,7 1012,5 -
11.08.2018 06:00:00 24,8 14,2 1012,3 -
11.08.2018 05:00:00 25,0 15,0 1012,2 -
11.08.2018 04:00:00 25,6 15,5 1012,3 -
11.08.2018 03:00:00 24,9 17,6 1012,8 -
11.08.2018 02:00:00 25,7 15,3 1013,0 0,0
11.08.2018 01:00:00 26,8 16,4 1013,0 -
11.08.2018 00:00:00 26,1 18,2 1013,0 -
10.08.2018 23:00:00 26,6 16,2 1012,9 -
10.08.2018 22:00:00 27,2 18,4 1012,9 -
10.08.2018 21:00:00 27,2 21,9 1012,7 -
10.08.2018 20:00:00 28,1 22,1 1012,3 0,0
10.08.2018 19:00:00 28,8 23,9 1012,4 -
10.08.2018 18:00:00 28,2 23,9 1012,5 -

tt = temperature
td = dewpoint
ppp = reduced air pressure
rr = precipitation

Next stations